sensor_id;sensor_type;location;lat;lon;timestamp;P1;durP1;ratioP1;P2;durP2;ratioP2
18568;SDS011;14780;48.316;-1.050;2023-03-26T00:00:30;2.55;;;1.40;;
18568;SDS011;14780;48.316;-1.050;2023-03-26T00:03:16;2.15;;;1.40;;
18568;SDS011;14780;48.316;-1.050;2023-03-26T00:06:02;1.85;;;1.45;;
18568;SDS011;14780;48.316;-1.050;2023-03-26T00:08:51;2.83;;;1.60;;
18568;SDS011;14780;48.316;-1.050;2023-03-26T00:11:35;2.13;;;1.40;;
18568;SDS011;14780;48.316;-1.050;2023-03-26T00:14:21;2.33;;;1.60;;
18568;SDS011;14780;48.316;-1.050;2023-03-26T00:17:06;2.55;;;1.55;;
18568;SDS011;14780;48.316;-1.050;2023-03-26T00:19:51;3.03;;;1.40;;
18568;SDS011;14780;48.316;-1.050;2023-03-26T00:22:36;2.30;;;1.20;;
18568;SDS011;14780;48.316;-1.050;2023-03-26T00:25:21;2.13;;;1.40;;
18568;SDS011;14780;48.316;-1.050;2023-03-26T00:28:07;1.50;;;1.40;;
18568;SDS011;14780;48.316;-1.050;2023-03-26T00:30:56;2.30;;;1.58;;
18568;SDS011;14780;48.316;-1.050;2023-03-26T00:33:45;4.45;;;1.70;;
18568;SDS011;14780;48.316;-1.050;2023-03-26T00:36:30;2.65;;;1.48;;
18568;SDS011;14780;48.316;-1.050;2023-03-26T00:39:19;2.45;;;1.42;;
18568;SDS011;14780;48.316;-1.050;2023-03-26T00:42:06;2.50;;;1.52;;
18568;SDS011;14780;48.316;-1.050;2023-03-26T00:44:50;1.40;;;1.30;;
18568;SDS011;14780;48.316;-1.050;2023-03-26T00:47:40;2.65;;;1.45;;
18568;SDS011;14780;48.316;-1.050;2023-03-26T00:50:26;2.13;;;1.35;;
18568;SDS011;14780;48.316;-1.050;2023-03-26T00:53:11;2.92;;;1.40;;
18568;SDS011;14780;48.316;-1.050;2023-03-26T00:55:56;2.35;;;1.30;;
18568;SDS011;14780;48.316;-1.050;2023-03-26T00:58:42;1.65;;;1.15;;
18568;SDS011;14780;48.316;-1.050;2023-03-26T01:01:28;2.58;;;1.40;;
18568;SDS011;14780;48.316;-1.050;2023-03-26T01:07:28;2.65;;;1.20;;
18568;SDS011;14780;48.316;-1.050;2023-03-26T01:10:13;1.38;;;1.27;;
18568;SDS011;14780;48.316;-1.050;2023-03-26T01:12:58;2.38;;;1.40;;
18568;SDS011;14780;48.316;-1.050;2023-03-26T01:15:43;2.70;;;1.15;;
18568;SDS011;14780;48.316;-1.050;2023-03-26T01:18:33;1.17;;;0.95;;
18568;SDS011;14780;48.316;-1.050;2023-03-26T01:21:24;2.22;;;1.23;;
18568;SDS011;14780;48.316;-1.050;2023-03-26T01:24:12;1.45;;;1.17;;
18568;SDS011;14780;48.316;-1.050;2023-03-26T01:27:14;3.25;;;1.45;;
18568;SDS011;14780;48.316;-1.050;2023-03-26T01:30:36;1.95;;;1.25;;
18568;SDS011;14780;48.316;-1.050;2023-03-26T01:33:25;2.50;;;1.40;;
18568;SDS011;14780;48.316;-1.050;2023-03-26T01:36:20;1.27;;;1.10;;
18568;SDS011;14780;48.316;-1.050;2023-03-26T01:39:28;2.15;;;0.98;;
18568;SDS011;14780;48.316;-1.050;2023-03-26T01:45:40;1.67;;;0.95;;
18568;SDS011;14780;48.316;-1.050;2023-03-26T01:48:38;1.52;;;1.33;;
18568;SDS011;14780;48.316;-1.050;2023-03-26T01:51:32;0.80;;;0.80;;
18568;SDS011;14780;48.316;-1.050;2023-03-26T01:54:18;1.50;;;1.00;;
18568;SDS011;14780;48.316;-1.050;2023-03-26T01:57:09;1.58;;;1.13;;
18568;SDS011;14780;48.316;-1.050;2023-03-26T02:00:29;1.23;;;0.88;;
18568;SDS011;14780;48.316;-1.050;2023-03-26T02:06:18;1.42;;;1.05;;
18568;SDS011;14780;48.316;-1.050;2023-03-26T02:09:28;1.05;;;1.00;;
18568;SDS011;14780;48.316;-1.050;2023-03-26T02:12:18;2.25;;;1.20;;
18568;SDS011;14780;48.316;-1.050;2023-03-26T02:15:05;1.02;;;0.88;;
18568;SDS011;14780;48.316;-1.050;2023-03-26T02:17:51;2.13;;;1.13;;
18568;SDS011;14780;48.316;-1.050;2023-03-26T02:20:36;1.65;;;1.05;;
18568;SDS011;14780;48.316;-1.050;2023-03-26T02:23:21;2.28;;;1.05;;
18568;SDS011;14780;48.316;-1.050;2023-03-26T02:26:09;1.50;;;1.23;;
18568;SDS011;14780;48.316;-1.050;2023-03-26T02:28:56;1.20;;;0.90;;
18568;SDS011;14780;48.316;-1.050;2023-03-26T02:31:41;2.05;;;1.48;;
18568;SDS011;14780;48.316;-1.050;2023-03-26T02:34:26;2.13;;;1.25;;
18568;SDS011;14780;48.316;-1.050;2023-03-26T02:37:10;2.10;;;1.20;;
18568;SDS011;14780;48.316;-1.050;2023-03-26T02:39:55;2.35;;;1.50;;
18568;SDS011;14780;48.316;-1.050;2023-03-26T02:42:40;2.58;;;1.30;;
18568;SDS011;14780;48.316;-1.050;2023-03-26T02:45:24;1.65;;;1.20;;
18568;SDS011;14780;48.316;-1.050;2023-03-26T02:48:09;2.15;;;1.25;;
18568;SDS011;14780;48.316;-1.050;2023-03-26T02:50:53;1.90;;;1.10;;
18568;SDS011;14780;48.316;-1.050;2023-03-26T02:53:38;1.73;;;1.23;;
18568;SDS011;14780;48.316;-1.050;2023-03-26T02:56:24;3.40;;;1.50;;
18568;SDS011;14780;48.316;-1.050;2023-03-26T02:59:08;1.90;;;1.40;;
18568;SDS011;14780;48.316;-1.050;2023-03-26T03:01:53;1.70;;;1.10;;
18568;SDS011;14780;48.316;-1.050;2023-03-26T03:04:38;1.40;;;1.10;;
18568;SDS011;14780;48.316;-1.050;2023-03-26T03:07:22;2.15;;;1.58;;
18568;SDS011;14780;48.316;-1.050;2023-03-26T03:10:07;3.25;;;1.55;;
18568;SDS011;14780;48.316;-1.050;2023-03-26T03:12:52;2.95;;;1.70;;
18568;SDS011;14780;48.316;-1.050;2023-03-26T03:15:38;2.72;;;1.52;;
18568;SDS011;14780;48.316;-1.050;2023-03-26T03:18:22;1.52;;;1.20;;
18568;SDS011;14780;48.316;-1.050;2023-03-26T03:21:08;1.90;;;1.30;;
18568;SDS011;14780;48.316;-1.050;2023-03-26T03:23:54;3.63;;;1.60;;
18568;SDS011;14780;48.316;-1.050;2023-03-26T03:26:38;2.60;;;1.40;;
18568;SDS011;14780;48.316;-1.050;2023-03-26T03:29:25;3.10;;;1.50;;
18568;SDS011;14780;48.316;-1.050;2023-03-26T03:32:09;3.78;;;1.70;;
18568;SDS011;14780;48.316;-1.050;2023-03-26T03:34:54;3.38;;;1.83;;
18568;SDS011;14780;48.316;-1.050;2023-03-26T03:37:40;2.75;;;1.77;;
18568;SDS011;14780;48.316;-1.050;2023-03-26T03:40:25;3.22;;;1.50;;
18568;SDS011;14780;48.316;-1.050;2023-03-26T03:43:09;3.72;;;1.40;;
18568;SDS011;14780;48.316;-1.050;2023-03-26T03:45:54;4.20;;;1.60;;
18568;SDS011;14780;48.316;-1.050;2023-03-26T03:48:38;2.42;;;1.52;;
18568;SDS011;14780;48.316;-1.050;2023-03-26T03:51:23;2.88;;;1.50;;
18568;SDS011;14780;48.316;-1.050;2023-03-26T03:54:08;3.03;;;1.50;;
18568;SDS011;14780;48.316;-1.050;2023-03-26T03:56:53;3.13;;;1.80;;
18568;SDS011;14780;48.316;-1.050;2023-03-26T03:59:38;2.75;;;1.50;;
18568;SDS011;14780;48.316;-1.050;2023-03-26T04:02:24;3.40;;;1.65;;
18568;SDS011;14780;48.316;-1.050;2023-03-26T04:05:12;3.90;;;2.00;;
18568;SDS011;14780;48.316;-1.050;2023-03-26T04:07:58;3.17;;;1.60;;
18568;SDS011;14780;48.316;-1.050;2023-03-26T04:10:43;2.83;;;1.52;;
18568;SDS011;14780;48.316;-1.050;2023-03-26T04:13:28;2.65;;;1.50;;
18568;SDS011;14780;48.316;-1.050;2023-03-26T04:16:13;4.35;;;1.90;;
18568;SDS011;14780;48.316;-1.050;2023-03-26T04:19:00;4.18;;;1.75;;
18568;SDS011;14780;48.316;-1.050;2023-03-26T04:21:46;4.55;;;2.13;;
18568;SDS011;14780;48.316;-1.050;2023-03-26T04:24:32;3.92;;;2.20;;
18568;SDS011;14780;48.316;-1.050;2023-03-26T04:27:17;2.53;;;1.67;;
18568;SDS011;14780;48.316;-1.050;2023-03-26T04:30:10;2.60;;;1.52;;
18568;SDS011;14780;48.316;-1.050;2023-03-26T04:33:01;3.92;;;1.80;;
18568;SDS011;14780;48.316;-1.050;2023-03-26T04:35:49;4.57;;;2.00;;
18568;SDS011;14780;48.316;-1.050;2023-03-26T04:38:41;3.95;;;1.70;;
18568;SDS011;14780;48.316;-1.050;2023-03-26T04:41:28;3.80;;;1.95;;
18568;SDS011;14780;48.316;-1.050;2023-03-26T04:44:14;4.15;;;1.80;;
18568;SDS011;14780;48.316;-1.050;2023-03-26T04:46:59;4.35;;;2.03;;
18568;SDS011;14780;48.316;-1.050;2023-03-26T04:49:44;3.78;;;1.92;;
18568;SDS011;14780;48.316;-1.050;2023-03-26T04:52:32;3.42;;;2.10;;
18568;SDS011;14780;48.316;-1.050;2023-03-26T04:55:20;3.67;;;2.03;;
18568;SDS011;14780;48.316;-1.050;2023-03-26T04:58:16;3.83;;;1.90;;
18568;SDS011;14780;48.316;-1.050;2023-03-26T05:01:01;5.05;;;1.70;;
18568;SDS011;14780;48.316;-1.050;2023-03-26T05:03:46;3.63;;;2.00;;
18568;SDS011;14780;48.316;-1.050;2023-03-26T05:06:30;3.80;;;2.10;;
18568;SDS011;14780;48.316;-1.050;2023-03-26T05:09:16;3.92;;;1.92;;
18568;SDS011;14780;48.316;-1.050;2023-03-26T05:12:03;3.58;;;1.83;;
18568;SDS011;14780;48.316;-1.050;2023-03-26T05:14:48;3.95;;;1.90;;
18568;SDS011;14780;48.316;-1.050;2023-03-26T05:17:33;4.28;;;2.30;;
18568;SDS011;14780;48.316;-1.050;2023-03-26T05:20:24;2.88;;;1.80;;
18568;SDS011;14780;48.316;-1.050;2023-03-26T05:23:10;4.90;;;1.98;;
18568;SDS011;14780;48.316;-1.050;2023-03-26T05:25:55;5.22;;;1.83;;
18568;SDS011;14780;48.316;-1.050;2023-03-26T05:28:40;4.57;;;2.00;;
18568;SDS011;14780;48.316;-1.050;2023-03-26T05:31:24;4.05;;;1.95;;
18568;SDS011;14780;48.316;-1.050;2023-03-26T05:34:10;3.95;;;1.83;;
18568;SDS011;14780;48.316;-1.050;2023-03-26T05:36:55;5.35;;;2.20;;
18568;SDS011;14780;48.316;-1.050;2023-03-26T05:39:40;4.85;;;2.10;;
18568;SDS011;14780;48.316;-1.050;2023-03-26T05:42:26;3.05;;;1.75;;
18568;SDS011;14780;48.316;-1.050;2023-03-26T05:45:12;4.57;;;2.22;;
18568;SDS011;14780;48.316;-1.050;2023-03-26T05:47:58;4.40;;;1.83;;
18568;SDS011;14780;48.316;-1.050;2023-03-26T05:50:43;5.15;;;2.00;;
18568;SDS011;14780;48.316;-1.050;2023-03-26T05:53:30;3.78;;;2.00;;
18568;SDS011;14780;48.316;-1.050;2023-03-26T05:56:14;4.55;;;2.13;;
18568;SDS011;14780;48.316;-1.050;2023-03-26T05:58:59;3.67;;;1.85;;
18568;SDS011;14780;48.316;-1.050;2023-03-26T06:01:44;3.22;;;1.90;;
18568;SDS011;14780;48.316;-1.050;2023-03-26T06:04:28;3.53;;;1.90;;
18568;SDS011;14780;48.316;-1.050;2023-03-26T06:07:14;3.38;;;1.90;;
18568;SDS011;14780;48.316;-1.050;2023-03-26T06:10:00;6.38;;;2.25;;
18568;SDS011;14780;48.316;-1.050;2023-03-26T06:12:45;4.15;;;2.13;;
18568;SDS011;14780;48.316;-1.050;2023-03-26T06:15:30;4.32;;;2.30;;
18568;SDS011;14780;48.316;-1.050;2023-03-26T06:18:15;4.45;;;1.90;;
18568;SDS011;14780;48.316;-1.050;2023-03-26T06:21:00;3.45;;;1.65;;
18568;SDS011;14780;48.316;-1.050;2023-03-26T06:23:46;4.38;;;1.80;;
18568;SDS011;14780;48.316;-1.050;2023-03-26T06:26:31;3.00;;;1.70;;
18568;SDS011;14780;48.316;-1.050;2023-03-26T06:29:16;2.95;;;1.50;;
18568;SDS011;14780;48.316;-1.050;2023-03-26T06:32:01;4.55;;;1.98;;
18568;SDS011;14780;48.316;-1.050;2023-03-26T06:34:46;4.15;;;1.88;;
18568;SDS011;14780;48.316;-1.050;2023-03-26T06:37:31;4.60;;;2.25;;
18568;SDS011;14780;48.316;-1.050;2023-03-26T06:40:16;4.57;;;1.75;;
18568;SDS011;14780;48.316;-1.050;2023-03-26T06:43:01;4.28;;;1.88;;
18568;SDS011;14780;48.316;-1.050;2023-03-26T06:45:49;2.63;;;1.80;;
18568;SDS011;14780;48.316;-1.050;2023-03-26T06:48:35;2.65;;;1.65;;
18568;SDS011;14780;48.316;-1.050;2023-03-26T06:51:20;2.90;;;1.80;;
18568;SDS011;14780;48.316;-1.050;2023-03-26T06:54:04;3.58;;;1.80;;
18568;SDS011;14780;48.316;-1.050;2023-03-26T06:56:49;3.97;;;1.88;;
18568;SDS011;14780;48.316;-1.050;2023-03-26T06:59:35;4.07;;;1.80;;
18568;SDS011;14780;48.316;-1.050;2023-03-26T07:02:19;3.10;;;1.67;;
18568;SDS011;14780;48.316;-1.050;2023-03-26T07:05:04;3.15;;;1.58;;
18568;SDS011;14780;48.316;-1.050;2023-03-26T07:07:49;3.83;;;1.85;;
18568;SDS011;14780;48.316;-1.050;2023-03-26T07:10:33;3.80;;;2.17;;
18568;SDS011;14780;48.316;-1.050;2023-03-26T07:13:18;5.20;;;1.92;;
18568;SDS011;14780;48.316;-1.050;2023-03-26T07:16:03;3.95;;;1.63;;
18568;SDS011;14780;48.316;-1.050;2023-03-26T07:18:49;2.92;;;1.70;;
18568;SDS011;14780;48.316;-1.050;2023-03-26T07:21:34;3.92;;;1.73;;
18568;SDS011;14780;48.316;-1.050;2023-03-26T07:24:19;6.38;;;2.50;;
18568;SDS011;14780;48.316;-1.050;2023-03-26T07:30:02;9.63;;;6.00;;
18568;SDS011;14780;48.316;-1.050;2023-03-26T07:35:52;12.68;;;5.78;;
18568;SDS011;14780;48.316;-1.050;2023-03-26T07:42:26;11.38;;;5.18;;
18568;SDS011;14780;48.316;-1.050;2023-03-26T07:48:12;7.82;;;4.82;;
18568;SDS011;14780;48.316;-1.050;2023-03-26T07:51:00;8.00;;;4.25;;
18568;SDS011;14780;48.316;-1.050;2023-03-26T07:53:46;7.38;;;4.40;;
18568;SDS011;14780;48.316;-1.050;2023-03-26T07:56:41;10.00;;;4.28;;
18568;SDS011;14780;48.316;-1.050;2023-03-26T08:09:02;8.27;;;4.05;;
18568;SDS011;14780;48.316;-1.050;2023-03-26T08:21:31;8.95;;;4.00;;
18568;SDS011;14780;48.316;-1.050;2023-03-26T08:30:22;9.25;;;3.67;;
18568;SDS011;14780;48.316;-1.050;2023-03-26T08:33:17;5.22;;;3.58;;
18568;SDS011;14780;48.316;-1.050;2023-03-26T08:36:03;6.97;;;3.47;;
18568;SDS011;14780;48.316;-1.050;2023-03-26T08:38:48;6.40;;;3.60;;
18568;SDS011;14780;48.316;-1.050;2023-03-26T09:07:22;4.10;;;2.60;;
18568;SDS011;14780;48.316;-1.050;2023-03-26T09:22:51;4.05;;;2.63;;
18568;SDS011;14780;48.316;-1.050;2023-03-26T09:31:56;16.75;;;3.58;;
18568;SDS011;14780;48.316;-1.050;2023-03-26T09:40:47;8.10;;;3.10;;
18568;SDS011;14780;48.316;-1.050;2023-03-26T10:05:12;3.45;;;2.13;;
18568;SDS011;14780;48.316;-1.050;2023-03-26T10:11:14;6.10;;;2.08;;
18568;SDS011;14780;48.316;-1.050;2023-03-26T10:18:41;4.10;;;1.75;;
18568;SDS011;14780;48.316;-1.050;2023-03-26T10:21:35;6.85;;;1.77;;
18568;SDS011;14780;48.316;-1.050;2023-03-26T10:24:39;5.97;;;2.35;;
18568;SDS011;14780;48.316;-1.050;2023-03-26T10:40:15;8.07;;;2.15;;
18568;SDS011;14780;48.316;-1.050;2023-03-26T10:46:52;3.40;;;1.85;;
18568;SDS011;14780;48.316;-1.050;2023-03-26T10:55:45;6.28;;;1.98;;
18568;SDS011;14780;48.316;-1.050;2023-03-26T10:58:35;5.93;;;2.35;;
18568;SDS011;14780;48.316;-1.050;2023-03-26T11:01:28;6.20;;;2.30;;
18568;SDS011;14780;48.316;-1.050;2023-03-26T11:04:46;5.53;;;2.25;;
18568;SDS011;14780;48.316;-1.050;2023-03-26T11:08:01;7.30;;;2.67;;
18568;SDS011;14780;48.316;-1.050;2023-03-26T11:10:58;8.15;;;2.92;;
18568;SDS011;14780;48.316;-1.050;2023-03-26T11:19:56;7.63;;;2.90;;
18568;SDS011;14780;48.316;-1.050;2023-03-26T11:26:05;7.15;;;3.10;;
18568;SDS011;14780;48.316;-1.050;2023-03-26T11:32:02;6.65;;;3.35;;
18568;SDS011;14780;48.316;-1.050;2023-03-26T11:37:45;6.65;;;3.00;;
18568;SDS011;14780;48.316;-1.050;2023-03-26T11:40:42;5.00;;;3.30;;
18568;SDS011;14780;48.316;-1.050;2023-03-26T11:43:34;5.57;;;3.25;;
18568;SDS011;14780;48.316;-1.050;2023-03-26T11:46:20;7.57;;;3.47;;
18568;SDS011;14780;48.316;-1.050;2023-03-26T11:49:07;5.88;;;3.30;;
18568;SDS011;14780;48.316;-1.050;2023-03-26T11:51:55;15.20;;;10.52;;
18568;SDS011;14780;48.316;-1.050;2023-03-26T11:54:40;21.23;;;15.05;;
18568;SDS011;14780;48.316;-1.050;2023-03-26T11:57:28;20.75;;;14.73;;
18568;SDS011;14780;48.316;-1.050;2023-03-26T12:00:17;22.55;;;14.48;;
18568;SDS011;14780;48.316;-1.050;2023-03-26T12:03:05;17.73;;;12.80;;
18568;SDS011;14780;48.316;-1.050;2023-03-26T12:05:58;20.73;;;13.60;;
18568;SDS011;14780;48.316;-1.050;2023-03-26T12:08:45;15.50;;;12.13;;
18568;SDS011;14780;48.316;-1.050;2023-03-26T12:11:30;17.20;;;13.38;;
18568;SDS011;14780;48.316;-1.050;2023-03-26T12:14:18;18.73;;;11.70;;
18568;SDS011;14780;48.316;-1.050;2023-03-26T12:17:10;16.98;;;12.35;;
18568;SDS011;14780;48.316;-1.050;2023-03-26T12:19:57;14.73;;;11.07;;
18568;SDS011;14780;48.316;-1.050;2023-03-26T12:22:44;14.23;;;10.30;;
18568;SDS011;14780;48.316;-1.050;2023-03-26T12:28:18;13.43;;;10.55;;
18568;SDS011;14780;48.316;-1.050;2023-03-26T12:31:04;14.23;;;10.15;;
18568;SDS011;14780;48.316;-1.050;2023-03-26T12:34:13;14.40;;;9.25;;
18568;SDS011;14780;48.316;-1.050;2023-03-26T12:37:01;15.15;;;8.60;;
18568;SDS011;14780;48.316;-1.050;2023-03-26T12:39:47;11.27;;;8.48;;
18568;SDS011;14780;48.316;-1.050;2023-03-26T12:42:50;12.68;;;8.50;;
18568;SDS011;14780;48.316;-1.050;2023-03-26T12:45:37;12.35;;;8.07;;
18568;SDS011;14780;48.316;-1.050;2023-03-26T12:48:24;11.75;;;8.07;;
18568;SDS011;14780;48.316;-1.050;2023-03-26T12:51:30;10.35;;;7.60;;
18568;SDS011;14780;48.316;-1.050;2023-03-26T12:54:34;11.68;;;7.38;;
18568;SDS011;14780;48.316;-1.050;2023-03-26T12:57:35;10.38;;;6.90;;
18568;SDS011;14780;48.316;-1.050;2023-03-26T13:00:50;9.43;;;6.10;;
18568;SDS011;14780;48.316;-1.050;2023-03-26T13:03:58;11.05;;;5.68;;
18568;SDS011;14780;48.316;-1.050;2023-03-26T13:06:56;9.05;;;5.10;;
18568;SDS011;14780;48.316;-1.050;2023-03-26T13:16:31;577.58;;;360.70;;
18568;SDS011;14780;48.316;-1.050;2023-03-26T13:28:31;805.72;;;492.17;;
18568;SDS011;14780;48.316;-1.050;2023-03-26T13:31:35;782.55;;;480.83;;
18568;SDS011;14780;48.316;-1.050;2023-03-26T13:35:00;759.53;;;480.77;;
18568;SDS011;14780;48.316;-1.050;2023-03-26T13:47:43;668.13;;;423.52;;
18568;SDS011;14780;48.316;-1.050;2023-03-26T13:50:32;651.83;;;404.20;;
18568;SDS011;14780;48.316;-1.050;2023-03-26T13:53:24;629.45;;;408.30;;
18568;SDS011;14780;48.316;-1.050;2023-03-26T13:56:16;578.53;;;369.10;;
18568;SDS011;14780;48.316;-1.050;2023-03-26T13:59:19;558.70;;;345.95;;
18568;SDS011;14780;48.316;-1.050;2023-03-26T14:02:16;519.13;;;328.63;;
18568;SDS011;14780;48.316;-1.050;2023-03-26T14:05:26;518.70;;;331.70;;
18568;SDS011;14780;48.316;-1.050;2023-03-26T14:08:22;501.55;;;307.27;;
18568;SDS011;14780;48.316;-1.050;2023-03-26T14:11:18;466.23;;;288.90;;
18568;SDS011;14780;48.316;-1.050;2023-03-26T14:14:22;441.55;;;258.55;;
18568;SDS011;14780;48.316;-1.050;2023-03-26T14:29:27;310.40;;;173.60;;
18568;SDS011;14780;48.316;-1.050;2023-03-26T14:41:34;249.02;;;136.80;;
18568;SDS011;14780;48.316;-1.050;2023-03-26T14:44:53;218.27;;;125.25;;
18568;SDS011;14780;48.316;-1.050;2023-03-26T14:54:12;192.70;;;109.13;;
18568;SDS011;14780;48.316;-1.050;2023-03-26T15:12:50;160.63;;;87.47;;
18568;SDS011;14780;48.316;-1.050;2023-03-26T15:22:24;123.53;;;69.40;;
18568;SDS011;14780;48.316;-1.050;2023-03-26T15:34:43;103.80;;;60.13;;
18568;SDS011;14780;48.316;-1.050;2023-03-26T15:38:04;99.70;;;56.47;;
18568;SDS011;14780;48.316;-1.050;2023-03-26T16:04:53;71.93;;;40.33;;
18568;SDS011;14780;48.316;-1.050;2023-03-26T16:10:54;60.80;;;35.25;;
18568;SDS011;14780;48.316;-1.050;2023-03-26T16:13:53;59.15;;;33.63;;
18568;SDS011;14780;48.316;-1.050;2023-03-26T16:17:00;58.53;;;34.50;;
18568;SDS011;14780;48.316;-1.050;2023-03-26T16:34:57;48.60;;;27.83;;
18568;SDS011;14780;48.316;-1.050;2023-03-26T16:37:48;41.30;;;23.00;;
18568;SDS011;14780;48.316;-1.050;2023-03-26T16:40:57;44.20;;;23.65;;
18568;SDS011;14780;48.316;-1.050;2023-03-26T16:47:06;38.25;;;21.17;;
18568;SDS011;14780;48.316;-1.050;2023-03-26T16:53:01;29.92;;;19.13;;
18568;SDS011;14780;48.316;-1.050;2023-03-26T16:56:26;35.00;;;20.83;;
18568;SDS011;14780;48.316;-1.050;2023-03-26T17:02:30;31.08;;;18.45;;
18568;SDS011;14780;48.316;-1.050;2023-03-26T17:08:13;35.65;;;17.15;;
18568;SDS011;14780;48.316;-1.050;2023-03-26T17:15:16;33.20;;;16.92;;
18568;SDS011;14780;48.316;-1.050;2023-03-26T17:17:40;35.15;;;18.00;;
18568;SDS011;14780;48.316;-1.050;2023-03-26T17:26:27;38.00;;;16.13;;
18568;SDS011;14780;48.316;-1.050;2023-03-26T17:35:49;24.80;;;13.75;;
18568;SDS011;14780;48.316;-1.050;2023-03-26T17:38:53;26.85;;;13.25;;
18568;SDS011;14780;48.316;-1.050;2023-03-26T17:41:52;25.52;;;12.77;;
18568;SDS011;14780;48.316;-1.050;2023-03-26T17:44:46;26.75;;;12.93;;
18568;SDS011;14780;48.316;-1.050;2023-03-26T17:47:37;24.48;;;12.93;;
18568;SDS011;14780;48.316;-1.050;2023-03-26T17:50:33;20.65;;;12.18;;
18568;SDS011;14780;48.316;-1.050;2023-03-26T17:53:33;20.70;;;11.13;;
18568;SDS011;14780;48.316;-1.050;2023-03-26T17:56:21;22.17;;;11.52;;
18568;SDS011;14780;48.316;-1.050;2023-03-26T17:59:14;19.58;;;10.00;;
18568;SDS011;14780;48.316;-1.050;2023-03-26T18:02:09;20.75;;;11.07;;
18568;SDS011;14780;48.316;-1.050;2023-03-26T18:05:02;17.98;;;10.02;;
18568;SDS011;14780;48.316;-1.050;2023-03-26T18:07:56;14.57;;;7.60;;
18568;SDS011;14780;48.316;-1.050;2023-03-26T18:11:05;9.02;;;4.35;;
18568;SDS011;14780;48.316;-1.050;2023-03-26T18:17:11;8.73;;;4.15;;
18568;SDS011;14780;48.316;-1.050;2023-03-26T18:20:01;8.70;;;4.00;;
18568;SDS011;14780;48.316;-1.050;2023-03-26T18:22:52;9.10;;;4.05;;
18568;SDS011;14780;48.316;-1.050;2023-03-26T18:25:37;7.32;;;3.58;;
18568;SDS011;14780;48.316;-1.050;2023-03-26T18:28:30;8.43;;;4.13;;
18568;SDS011;14780;48.316;-1.050;2023-03-26T18:31:24;7.68;;;3.80;;
18568;SDS011;14780;48.316;-1.050;2023-03-26T18:34:13;9.82;;;3.78;;
18568;SDS011;14780;48.316;-1.050;2023-03-26T18:40:13;9.50;;;3.67;;
18568;SDS011;14780;48.316;-1.050;2023-03-26T18:43:02;9.70;;;3.90;;
18568;SDS011;14780;48.316;-1.050;2023-03-26T18:45:47;6.45;;;3.38;;
18568;SDS011;14780;48.316;-1.050;2023-03-26T18:48:34;6.35;;;3.42;;
18568;SDS011;14780;48.316;-1.050;2023-03-26T18:51:19;8.63;;;3.72;;
18568;SDS011;14780;48.316;-1.050;2023-03-26T18:54:06;7.00;;;3.45;;
18568;SDS011;14780;48.316;-1.050;2023-03-26T18:56:54;7.93;;;3.22;;
18568;SDS011;14780;48.316;-1.050;2023-03-26T18:59:41;8.13;;;3.65;;
18568;SDS011;14780;48.316;-1.050;2023-03-26T19:02:27;5.63;;;3.08;;
18568;SDS011;14780;48.316;-1.050;2023-03-26T19:05:15;10.10;;;3.40;;
18568;SDS011;14780;48.316;-1.050;2023-03-26T19:08:02;7.30;;;3.15;;
18568;SDS011;14780;48.316;-1.050;2023-03-26T19:10:49;6.45;;;3.20;;
18568;SDS011;14780;48.316;-1.050;2023-03-26T19:13:36;7.03;;;3.08;;
18568;SDS011;14780;48.316;-1.050;2023-03-26T19:16:26;4.57;;;3.05;;
18568;SDS011;14780;48.316;-1.050;2023-03-26T19:19:17;5.87;;;2.90;;
18568;SDS011;14780;48.316;-1.050;2023-03-26T19:22:05;5.95;;;3.05;;
18568;SDS011;14780;48.316;-1.050;2023-03-26T19:24:58;7.85;;;3.00;;
18568;SDS011;14780;48.316;-1.050;2023-03-26T19:27:45;5.00;;;2.78;;
18568;SDS011;14780;48.316;-1.050;2023-03-26T19:30:34;6.88;;;2.60;;
18568;SDS011;14780;48.316;-1.050;2023-03-26T19:33:23;5.43;;;2.97;;
18568;SDS011;14780;48.316;-1.050;2023-03-26T19:36:16;5.20;;;2.78;;
18568;SDS011;14780;48.316;-1.050;2023-03-26T19:39:09;5.13;;;2.40;;
18568;SDS011;14780;48.316;-1.050;2023-03-26T19:41:55;4.45;;;2.35;;
18568;SDS011;14780;48.316;-1.050;2023-03-26T19:44:40;4.05;;;2.30;;
18568;SDS011;14780;48.316;-1.050;2023-03-26T19:47:30;5.38;;;2.58;;
18568;SDS011;14780;48.316;-1.050;2023-03-26T19:50:23;3.83;;;2.45;;
18568;SDS011;14780;48.316;-1.050;2023-03-26T19:55:56;3.63;;;2.30;;
18568;SDS011;14780;48.316;-1.050;2023-03-26T19:59:01;4.43;;;2.50;;
18568;SDS011;14780;48.316;-1.050;2023-03-26T20:01:48;3.97;;;2.00;;
18568;SDS011;14780;48.316;-1.050;2023-03-26T20:04:32;4.78;;;2.42;;
18568;SDS011;14780;48.316;-1.050;2023-03-26T20:07:18;3.83;;;2.22;;
18568;SDS011;14780;48.316;-1.050;2023-03-26T20:10:05;3.92;;;2.10;;
18568;SDS011;14780;48.316;-1.050;2023-03-26T20:12:50;3.67;;;2.28;;
18568;SDS011;14780;48.316;-1.050;2023-03-26T20:15:35;2.55;;;1.70;;
18568;SDS011;14780;48.316;-1.050;2023-03-26T20:18:22;3.72;;;1.92;;
18568;SDS011;14780;48.316;-1.050;2023-03-26T20:21:09;2.53;;;1.98;;
18568;SDS011;14780;48.316;-1.050;2023-03-26T20:23:55;2.80;;;1.75;;
18568;SDS011;14780;48.316;-1.050;2023-03-26T20:26:39;4.40;;;2.13;;
18568;SDS011;14780;48.316;-1.050;2023-03-26T20:29:24;3.72;;;1.98;;
18568;SDS011;14780;48.316;-1.050;2023-03-26T20:32:21;2.83;;;1.55;;
18568;SDS011;14780;48.316;-1.050;2023-03-26T20:35:11;2.97;;;1.77;;
18568;SDS011;14780;48.316;-1.050;2023-03-26T20:38:03;3.20;;;2.08;;
18568;SDS011;14780;48.316;-1.050;2023-03-26T20:40:52;2.65;;;1.67;;
18568;SDS011;14780;48.316;-1.050;2023-03-26T20:43:37;2.53;;;1.60;;
18568;SDS011;14780;48.316;-1.050;2023-03-26T20:46:23;6.38;;;1.83;;
18568;SDS011;14780;48.316;-1.050;2023-03-26T20:49:10;5.88;;;1.75;;
18568;SDS011;14780;48.316;-1.050;2023-03-26T20:51:55;4.13;;;1.65;;
18568;SDS011;14780;48.316;-1.050;2023-03-26T20:54:42;5.10;;;2.03;;
18568;SDS011;14780;48.316;-1.050;2023-03-26T20:57:27;3.65;;;1.70;;
18568;SDS011;14780;48.316;-1.050;2023-03-26T21:00:12;3.05;;;1.80;;
18568;SDS011;14780;48.316;-1.050;2023-03-26T21:03:03;5.15;;;1.77;;
18568;SDS011;14780;48.316;-1.050;2023-03-26T21:05:47;2.45;;;1.70;;
18568;SDS011;14780;48.316;-1.050;2023-03-26T21:08:34;2.63;;;1.67;;
18568;SDS011;14780;48.316;-1.050;2023-03-26T21:14:24;2.47;;;1.58;;
18568;SDS011;14780;48.316;-1.050;2023-03-26T21:17:14;2.20;;;1.70;;
18568;SDS011;14780;48.316;-1.050;2023-03-26T21:20:01;2.55;;;1.55;;
18568;SDS011;14780;48.316;-1.050;2023-03-26T21:23:12;3.72;;;1.73;;
18568;SDS011;14780;48.316;-1.050;2023-03-26T21:31:55;3.28;;;1.60;;
18568;SDS011;14780;48.316;-1.050;2023-03-26T21:34:40;1.70;;;1.60;;
18568;SDS011;14780;48.316;-1.050;2023-03-26T21:37:25;2.13;;;1.27;;
18568;SDS011;14780;48.316;-1.050;2023-03-26T21:40:11;5.85;;;1.75;;
18568;SDS011;14780;48.316;-1.050;2023-03-26T21:42:57;1.23;;;1.08;;
18568;SDS011;14780;48.316;-1.050;2023-03-26T21:45:43;2.58;;;1.52;;
18568;SDS011;14780;48.316;-1.050;2023-03-26T21:48:30;1.98;;;1.30;;
18568;SDS011;14780;48.316;-1.050;2023-03-26T21:51:15;2.70;;;1.40;;
18568;SDS011;14780;48.316;-1.050;2023-03-26T21:54:01;2.70;;;1.33;;
18568;SDS011;14780;48.316;-1.050;2023-03-26T21:56:49;1.25;;;1.15;;
18568;SDS011;14780;48.316;-1.050;2023-03-26T21:59:48;2.25;;;1.60;;
18568;SDS011;14780;48.316;-1.050;2023-03-26T22:03:13;2.83;;;1.63;;
18568;SDS011;14780;48.316;-1.050;2023-03-26T22:06:12;3.20;;;1.23;;
18568;SDS011;14780;48.316;-1.050;2023-03-26T22:09:10;2.60;;;1.50;;
18568;SDS011;14780;48.316;-1.050;2023-03-26T22:11:56;2.08;;;1.50;;
18568;SDS011;14780;48.316;-1.050;2023-03-26T22:14:40;2.83;;;1.50;;
18568;SDS011;14780;48.316;-1.050;2023-03-26T22:17:25;1.52;;;1.30;;
18568;SDS011;14780;48.316;-1.050;2023-03-26T22:20:11;2.33;;;1.40;;
18568;SDS011;14780;48.316;-1.050;2023-03-26T22:22:57;1.80;;;1.20;;